ELY5031 LLBG-LGRP
Flight info
| Callsign | ELY5031 |
|---|---|
| Flight time | 1h 16m |
| Altitude | 38000 |
| Route | N0446F380 SUVAS N128 USEBE/N0347F160 N128 FOXLI FOXLI1G |
| Aircraft | B738/M-SDE2E3FGHIJ1LORVWXY/LB1 |
Departure
| Time | 2026-05-06 13:27 |
|---|---|
| Airport | Ben Gurion International Airport (LLBG) |
Arrival
| Time | 2026-05-06 14:43 |
|---|---|
| Airport | Rhodes International Airport "Diagoras" (LGRP) |
| Time | Latitude | Longitude | Altitude | Speed | Heading |
|---|---|---|---|---|---|
| 2026-05-06 12:56 | 32.00258 | 34.87424 | 119 ft | 0 kts | 275° |
| 2026-05-06 13:18 | 32.00258 | 34.87425 | 119 ft | 1 kts | 275° |
| 2026-05-06 13:18 | 32.00257 | 34.87453 | 119 ft | 4 kts | 273° |
| 2026-05-06 13:18 | 32.00255 | 34.87478 | 119 ft | 4 kts | 278° |
| 2026-05-06 13:18 | 32.00249 | 34.87509 | 117 ft | 4 kts | 292° |
| 2026-05-06 13:19 | 32.00246 | 34.87516 | 118 ft | 4 kts | 296° |
| 2026-05-06 13:19 | 32.00233 | 34.87543 | 115 ft | 3 kts | 310° |
| 2026-05-06 13:19 | 32.00219 | 34.87564 | 119 ft | 4 kts | 294° |
| 2026-05-06 13:19 | 32.00209 | 34.87593 | 119 ft | 4 kts | 306° |
| 2026-05-06 13:20 | 32.00191 | 34.87611 | 117 ft | 4 kts | 338° |
| 2026-05-06 13:20 | 32.00166 | 34.87614 | 116 ft | 4 kts | 18° |
| 2026-05-06 13:20 | 32.00145 | 34.87603 | 117 ft | 4 kts | 31° |
| 2026-05-06 13:20 | 32.00122 | 34.87586 | 116 ft | 4 kts | 32° |
| 2026-05-06 13:21 | 32.00105 | 34.87573 | 119 ft | 0 kts | 31° |
| 2026-05-06 13:22 | 32.00108 | 34.87576 | 118 ft | 4 kts | 32° |
| 2026-05-06 13:22 | 32.00175 | 34.87625 | 119 ft | 18 kts | 32° |
| 2026-05-06 13:23 | 32.00303 | 34.87716 | 117 ft | 22 kts | 31° |
| 2026-05-06 13:23 | 32.00434 | 34.87808 | 117 ft | 22 kts | 31° |
| 2026-05-06 13:23 | 32.00561 | 34.87900 | 117 ft | 21 kts | 31° |
| 2026-05-06 13:23 | 32.00685 | 34.87987 | 115 ft | 21 kts | 31° |
| 2026-05-06 13:24 | 32.00830 | 34.88092 | 117 ft | 28 kts | 32° |
| 2026-05-06 13:24 | 32.01009 | 34.88224 | 117 ft | 32 kts | 32° |
| 2026-05-06 13:24 | 32.01193 | 34.88357 | 117 ft | 30 kts | 32° |
| 2026-05-06 13:24 | 32.01349 | 34.88506 | 117 ft | 28 kts | 47° |
| 2026-05-06 13:25 | 32.01453 | 34.88692 | 117 ft | 26 kts | 66° |
| 2026-05-06 13:25 | 32.01505 | 34.88891 | 116 ft | 25 kts | 81° |
| 2026-05-06 13:25 | 32.01532 | 34.89079 | 118 ft | 20 kts | 80° |
| 2026-05-06 13:25 | 32.01619 | 34.89161 | 116 ft | 18 kts | 351° |
| 2026-05-06 13:26 | 32.01721 | 34.89134 | 117 ft | 11 kts | 336° |
| 2026-05-06 13:26 | 32.01741 | 34.89060 | 117 ft | 10 kts | 260° |
| 2026-05-06 13:26 | 32.01721 | 34.88931 | 120 ft | 34 kts | 259° |
| 2026-05-06 13:26 | 32.01638 | 34.88384 | 120 ft | 98 kts | 260° |
| 2026-05-06 13:27 | 32.01485 | 34.87382 | 117 ft | 148 kts | 260° |
| 2026-05-06 13:27 | 32.01259 | 34.86078 | 365 ft | 167 kts | 259° |
| 2026-05-06 13:27 | 32.00991 | 34.84779 | 1086 ft | 160 kts | 257° |
| 2026-05-06 13:27 | 32.00676 | 34.83527 | 1643 ft | 165 kts | 256° |
| 2026-05-06 13:28 | 32.00349 | 34.82212 | 2400 ft | 166 kts | 256° |
| 2026-05-06 13:28 | 32.00044 | 34.80902 | 3245 ft | 167 kts | 256° |
| 2026-05-06 13:28 | 31.99733 | 34.79510 | 3784 ft | 191 kts | 257° |
| 2026-05-06 13:28 | 31.99379 | 34.77885 | 4033 ft | 219 kts | 257° |
| 2026-05-06 13:29 | 31.98991 | 34.76054 | 4387 ft | 238 kts | 259° |
| 2026-05-06 13:29 | 31.99110 | 34.74031 | 4714 ft | 260 kts | 290° |
| 2026-05-06 13:29 | 31.99782 | 34.72006 | 5401 ft | 273 kts | 291° |
| 2026-05-06 13:29 | 32.00488 | 34.69802 | 5669 ft | 302 kts | 290° |
| 2026-05-06 13:30 | 32.01237 | 34.67426 | 6372 ft | 313 kts | 290° |
| 2026-05-06 13:30 | 32.02033 | 34.65024 | 7250 ft | 317 kts | 291° |
| 2026-05-06 13:30 | 32.02775 | 34.62562 | 7732 ft | 320 kts | 281° |
| 2026-05-06 13:30 | 32.02947 | 34.59934 | 8000 ft | 322 kts | 271° |
| 2026-05-06 13:31 | 32.03025 | 34.57297 | 7992 ft | 322 kts | 272° |
| 2026-05-06 13:31 | 32.03136 | 34.54657 | 8003 ft | 323 kts | 272° |
| 2026-05-06 13:31 | 32.03266 | 34.52043 | 8007 ft | 324 kts | 273° |
| 2026-05-06 13:31 | 32.03405 | 34.49387 | 8007 ft | 325 kts | 273° |
| 2026-05-06 13:32 | 32.03545 | 34.46729 | 8002 ft | 325 kts | 273° |
| 2026-05-06 13:32 | 32.03686 | 34.44066 | 8045 ft | 328 kts | 273° |
| 2026-05-06 13:32 | 32.03839 | 34.41370 | 8775 ft | 329 kts | 273° |
| 2026-05-06 13:32 | 32.03995 | 34.38678 | 9743 ft | 330 kts | 273° |
| 2026-05-06 13:33 | 32.04150 | 34.35980 | 10655 ft | 330 kts | 273° |
| 2026-05-06 13:33 | 32.04306 | 34.33286 | 11536 ft | 332 kts | 274° |
| 2026-05-06 13:33 | 32.04706 | 34.30594 | 12268 ft | 337 kts | 287° |
| 2026-05-06 13:33 | 32.05630 | 34.28051 | 13080 ft | 339 kts | 293° |
| 2026-05-06 13:34 | 32.06644 | 34.25533 | 13852 ft | 341 kts | 293° |
| 2026-05-06 13:34 | 32.07658 | 34.22998 | 14607 ft | 343 kts | 293° |
| 2026-05-06 13:34 | 32.08670 | 34.20445 | 15372 ft | 344 kts | 293° |
| 2026-05-06 13:34 | 32.09679 | 34.17880 | 16122 ft | 345 kts | 292° |
| 2026-05-06 13:35 | 32.10688 | 34.15301 | 16797 ft | 347 kts | 292° |
| 2026-05-06 13:35 | 32.11699 | 34.12707 | 17483 ft | 349 kts | 292° |
| 2026-05-06 13:35 | 32.12713 | 34.10102 | 18166 ft | 350 kts | 292° |
| 2026-05-06 13:35 | 32.13729 | 34.07485 | 18828 ft | 352 kts | 292° |
| 2026-05-06 13:36 | 32.14751 | 34.04848 | 19434 ft | 355 kts | 292° |
| 2026-05-06 13:36 | 32.15783 | 34.02187 | 20038 ft | 358 kts | 292° |
| 2026-05-06 13:36 | 32.16853 | 33.99521 | 20606 ft | 361 kts | 295° |
| 2026-05-06 13:36 | 32.18215 | 33.97004 | 21185 ft | 366 kts | 302° |
| 2026-05-06 13:37 | 32.19683 | 33.94586 | 21738 ft | 368 kts | 302° |
| 2026-05-06 13:37 | 32.21187 | 33.92121 | 22237 ft | 371 kts | 302° |
| 2026-05-06 13:37 | 32.22700 | 33.89637 | 22734 ft | 373 kts | 302° |
| 2026-05-06 13:37 | 32.24221 | 33.87134 | 23223 ft | 376 kts | 302° |
| 2026-05-06 13:38 | 32.25745 | 33.84617 | 23702 ft | 378 kts | 302° |
| 2026-05-06 13:38 | 32.27276 | 33.82081 | 24158 ft | 380 kts | 302° |
| 2026-05-06 13:38 | 32.28815 | 33.79526 | 24612 ft | 382 kts | 301° |
| 2026-05-06 13:38 | 32.30359 | 33.76958 | 25061 ft | 384 kts | 301° |
| 2026-05-06 13:39 | 32.31386 | 33.75249 | 25334 ft | 386 kts | 301° |
| 2026-05-06 13:39 | 32.32944 | 33.72652 | 25728 ft | 388 kts | 301° |
| 2026-05-06 13:39 | 32.34510 | 33.70041 | 26146 ft | 390 kts | 301° |
| 2026-05-06 13:39 | 32.36082 | 33.67421 | 26577 ft | 391 kts | 301° |
| 2026-05-06 13:40 | 32.38193 | 33.63898 | 27086 ft | 394 kts | 301° |
| 2026-05-06 13:40 | 32.39243 | 33.62143 | 27317 ft | 395 kts | 301° |
| 2026-05-06 13:40 | 32.40835 | 33.59482 | 27690 ft | 397 kts | 301° |
| 2026-05-06 13:40 | 32.42430 | 33.56812 | 28040 ft | 399 kts | 301° |
| 2026-05-06 13:41 | 32.44036 | 33.54123 | 28392 ft | 400 kts | 301° |
| 2026-05-06 13:41 | 32.45644 | 33.51428 | 28739 ft | 401 kts | 301° |
| 2026-05-06 13:41 | 32.47257 | 33.48724 | 29081 ft | 403 kts | 301° |
| 2026-05-06 13:41 | 32.48874 | 33.46012 | 29371 ft | 404 kts | 301° |
| 2026-05-06 13:42 | 32.50500 | 33.43280 | 29661 ft | 407 kts | 301° |
| 2026-05-06 13:42 | 32.52132 | 33.40538 | 29965 ft | 407 kts | 301° |
| 2026-05-06 13:42 | 32.53762 | 33.37800 | 30400 ft | 405 kts | 301° |
| 2026-05-06 13:42 | 32.55381 | 33.35077 | 30805 ft | 404 kts | 301° |
| 2026-05-06 13:43 | 32.56981 | 33.32382 | 31067 ft | 406 kts | 300° |
| 2026-05-06 13:43 | 32.58609 | 33.29639 | 31376 ft | 407 kts | 300° |
| 2026-05-06 13:43 | 32.60235 | 33.26896 | 31765 ft | 405 kts | 300° |
| 2026-05-06 13:43 | 32.61851 | 33.24166 | 32041 ft | 406 kts | 300° |
| 2026-05-06 13:44 | 32.63478 | 33.21416 | 32306 ft | 407 kts | 300° |
| 2026-05-06 13:44 | 32.65099 | 33.18677 | 32648 ft | 406 kts | 300° |
| 2026-05-06 13:44 | 32.66719 | 33.15937 | 32941 ft | 406 kts | 300° |
| 2026-05-06 13:44 | 32.68340 | 33.13194 | 33247 ft | 405 kts | 300° |
| 2026-05-06 13:45 | 32.69957 | 33.10455 | 33539 ft | 405 kts | 300° |
| 2026-05-06 13:45 | 32.73192 | 33.04973 | 34059 ft | 406 kts | 300° |
| 2026-05-06 13:45 | 32.74824 | 33.02202 | 34070 ft | 410 kts | 300° |
| 2026-05-06 13:46 | 32.78093 | 32.96641 | 34081 ft | 408 kts | 300° |
| 2026-05-06 13:46 | 32.81313 | 32.91165 | 34085 ft | 402 kts | 300° |
| 2026-05-06 13:47 | 32.84514 | 32.85709 | 34099 ft | 402 kts | 300° |
| 2026-05-06 13:47 | 32.87712 | 32.80245 | 34099 ft | 403 kts | 300° |
| 2026-05-06 13:48 | 32.90897 | 32.74799 | 34096 ft | 403 kts | 300° |
| 2026-05-06 13:48 | 32.94102 | 32.69312 | 34093 ft | 404 kts | 300° |
| 2026-05-06 13:49 | 32.97307 | 32.63819 | 34091 ft | 404 kts | 300° |
| 2026-05-06 13:49 | 33.00509 | 32.58320 | 34084 ft | 404 kts | 300° |
| 2026-05-06 13:50 | 33.03709 | 32.52817 | 34082 ft | 404 kts | 300° |
| 2026-05-06 13:50 | 33.06914 | 32.47296 | 34085 ft | 404 kts | 300° |
| 2026-05-06 13:51 | 33.10090 | 32.41818 | 34082 ft | 404 kts | 300° |
| 2026-05-06 13:51 | 33.13278 | 32.36310 | 34084 ft | 403 kts | 300° |
| 2026-05-06 13:52 | 33.16460 | 32.30810 | 34082 ft | 402 kts | 301° |
| 2026-05-06 13:52 | 33.19631 | 32.25315 | 34085 ft | 401 kts | 300° |
| 2026-05-06 13:53 | 33.22791 | 32.19829 | 34092 ft | 400 kts | 300° |
| 2026-05-06 13:53 | 33.25943 | 32.14351 | 34090 ft | 400 kts | 301° |
| 2026-05-06 13:54 | 33.29089 | 32.08878 | 34095 ft | 399 kts | 301° |
| 2026-05-06 13:54 | 33.32207 | 32.03444 | 34090 ft | 399 kts | 301° |
| 2026-05-06 13:55 | 33.35344 | 31.97968 | 34097 ft | 399 kts | 301° |
| 2026-05-06 13:55 | 33.38475 | 31.92494 | 34087 ft | 399 kts | 301° |
| 2026-05-06 13:56 | 33.41603 | 31.87016 | 34096 ft | 398 kts | 301° |
| 2026-05-06 13:56 | 33.44728 | 31.81540 | 34097 ft | 398 kts | 301° |
| 2026-05-06 13:57 | 33.47852 | 31.76056 | 34090 ft | 399 kts | 301° |
| 2026-05-06 13:57 | 33.50977 | 31.70568 | 34097 ft | 399 kts | 301° |
| 2026-05-06 13:58 | 33.54080 | 31.65111 | 34096 ft | 399 kts | 301° |
| 2026-05-06 13:58 | 33.57201 | 31.59612 | 34092 ft | 399 kts | 301° |
| 2026-05-06 13:59 | 33.60318 | 31.54114 | 34083 ft | 399 kts | 301° |
| 2026-05-06 13:59 | 33.63432 | 31.48609 | 34080 ft | 398 kts | 301° |
| 2026-05-06 14:00 | 33.66539 | 31.43109 | 34082 ft | 398 kts | 301° |
| 2026-05-06 14:00 | 33.69643 | 31.37607 | 34086 ft | 398 kts | 301° |
| 2026-05-06 14:01 | 33.72743 | 31.32102 | 34080 ft | 398 kts | 301° |
| 2026-05-06 14:01 | 33.75844 | 31.26589 | 34078 ft | 398 kts | 301° |
| 2026-05-06 14:02 | 33.78936 | 31.21086 | 34073 ft | 392 kts | 301° |
| 2026-05-06 14:02 | 33.81916 | 31.15776 | 34090 ft | 386 kts | 301° |
| 2026-05-06 14:03 | 33.84960 | 31.10332 | 34097 ft | 398 kts | 301° |
| 2026-05-06 14:03 | 33.88088 | 31.04734 | 34096 ft | 408 kts | 301° |
| 2026-05-06 14:04 | 33.91288 | 30.99000 | 34094 ft | 417 kts | 301° |
| 2026-05-06 14:04 | 33.94520 | 30.93204 | 34077 ft | 417 kts | 301° |
| 2026-05-06 14:05 | 33.97754 | 30.87390 | 34077 ft | 417 kts | 301° |
| 2026-05-06 14:05 | 34.00980 | 30.81578 | 34084 ft | 417 kts | 301° |
| 2026-05-06 14:06 | 34.04205 | 30.75758 | 34080 ft | 417 kts | 302° |
| 2026-05-06 14:06 | 34.07422 | 30.69943 | 34083 ft | 417 kts | 302° |
| 2026-05-06 14:07 | 34.10638 | 30.64119 | 34085 ft | 416 kts | 302° |
| 2026-05-06 14:07 | 34.13826 | 30.58335 | 34076 ft | 416 kts | 302° |
| 2026-05-06 14:08 | 34.17029 | 30.52515 | 34086 ft | 416 kts | 302° |
| 2026-05-06 14:08 | 34.20228 | 30.46696 | 34083 ft | 416 kts | 302° |
| 2026-05-06 14:09 | 34.23427 | 30.40865 | 34079 ft | 416 kts | 302° |
| 2026-05-06 14:09 | 34.26614 | 30.35042 | 34080 ft | 416 kts | 302° |
| 2026-05-06 14:10 | 34.29807 | 30.29205 | 34081 ft | 416 kts | 301° |
| 2026-05-06 14:10 | 34.32994 | 30.23371 | 34086 ft | 415 kts | 301° |
| 2026-05-06 14:11 | 34.36175 | 30.17537 | 34085 ft | 415 kts | 301° |
| 2026-05-06 14:11 | 34.39356 | 30.11690 | 34080 ft | 415 kts | 301° |
| 2026-05-06 14:12 | 34.42530 | 30.05850 | 34084 ft | 415 kts | 301° |
| 2026-05-06 14:12 | 34.45966 | 30.00272 | 34085 ft | 418 kts | 311° |
| 2026-05-06 14:13 | 34.50403 | 29.95668 | 34082 ft | 421 kts | 317° |
| 2026-05-06 14:13 | 34.54918 | 29.91160 | 34078 ft | 420 kts | 317° |
| 2026-05-06 14:14 | 34.59419 | 29.86626 | 34071 ft | 420 kts | 317° |
| 2026-05-06 14:14 | 34.63915 | 29.82068 | 34062 ft | 420 kts | 317° |
| 2026-05-06 14:15 | 34.68396 | 29.77505 | 34054 ft | 420 kts | 317° |
| 2026-05-06 14:15 | 34.72878 | 29.72939 | 34057 ft | 420 kts | 317° |
| 2026-05-06 14:16 | 34.77332 | 29.68395 | 34057 ft | 421 kts | 317° |
| 2026-05-06 14:16 | 34.81817 | 29.63814 | 34064 ft | 420 kts | 317° |
| 2026-05-06 14:17 | 34.86291 | 29.59238 | 34066 ft | 420 kts | 317° |
| 2026-05-06 14:17 | 34.90758 | 29.54661 | 34064 ft | 420 kts | 317° |
| 2026-05-06 14:18 | 34.95232 | 29.50069 | 34066 ft | 419 kts | 317° |
| 2026-05-06 14:18 | 34.99688 | 29.45487 | 34064 ft | 419 kts | 317° |
| 2026-05-06 14:19 | 35.04122 | 29.40922 | 34064 ft | 419 kts | 317° |
| 2026-05-06 14:19 | 35.08573 | 29.36332 | 34066 ft | 419 kts | 317° |
| 2026-05-06 14:20 | 35.12949 | 29.31818 | 34047 ft | 405 kts | 317° |
| 2026-05-06 14:20 | 35.17227 | 29.27393 | 34057 ft | 402 kts | 317° |
| 2026-05-06 14:21 | 35.19367 | 29.25176 | 33915 ft | 405 kts | 317° |
| 2026-05-06 14:21 | 35.21533 | 29.22932 | 33342 ft | 408 kts | 317° |
| 2026-05-06 14:21 | 35.23700 | 29.20685 | 32684 ft | 408 kts | 317° |
| 2026-05-06 14:21 | 35.25872 | 29.18436 | 31971 ft | 410 kts | 317° |
| 2026-05-06 14:22 | 35.28046 | 29.16179 | 31240 ft | 410 kts | 317° |
| 2026-05-06 14:22 | 35.30224 | 29.13915 | 30474 ft | 412 kts | 317° |
| 2026-05-06 14:22 | 35.32409 | 29.11641 | 29681 ft | 413 kts | 317° |
| 2026-05-06 14:22 | 35.34597 | 29.09363 | 28940 ft | 412 kts | 317° |
| 2026-05-06 14:23 | 35.36771 | 29.07099 | 28296 ft | 409 kts | 317° |
| 2026-05-06 14:23 | 35.38935 | 29.04845 | 27627 ft | 406 kts | 317° |
| 2026-05-06 14:23 | 35.41053 | 29.02640 | 27268 ft | 390 kts | 317° |
| 2026-05-06 14:23 | 35.43067 | 29.00544 | 26978 ft | 371 kts | 317° |
| 2026-05-06 14:24 | 35.45014 | 28.98513 | 26235 ft | 367 kts | 317° |
| 2026-05-06 14:24 | 35.46942 | 28.96497 | 25749 ft | 359 kts | 317° |
| 2026-05-06 14:24 | 35.48794 | 28.94559 | 25296 ft | 352 kts | 317° |
| 2026-05-06 14:24 | 35.50656 | 28.92610 | 25145 ft | 354 kts | 317° |
| 2026-05-06 14:25 | 35.52537 | 28.90636 | 25095 ft | 355 kts | 317° |
| 2026-05-06 14:25 | 35.54405 | 28.88677 | 25064 ft | 354 kts | 317° |
| 2026-05-06 14:25 | 35.56291 | 28.86697 | 25066 ft | 360 kts | 317° |
| 2026-05-06 14:25 | 35.58200 | 28.84693 | 25064 ft | 361 kts | 317° |
| 2026-05-06 14:26 | 35.60108 | 28.82691 | 25054 ft | 360 kts | 317° |
| 2026-05-06 14:26 | 35.62008 | 28.80697 | 25060 ft | 360 kts | 317° |
| 2026-05-06 14:26 | 35.63908 | 28.78700 | 25064 ft | 360 kts | 317° |
| 2026-05-06 14:26 | 35.65811 | 28.76700 | 25066 ft | 359 kts | 317° |
| 2026-05-06 14:27 | 35.67714 | 28.74697 | 25063 ft | 360 kts | 317° |
| 2026-05-06 14:27 | 35.69617 | 28.72693 | 25057 ft | 360 kts | 317° |
| 2026-05-06 14:27 | 35.71521 | 28.70685 | 25055 ft | 360 kts | 317° |
| 2026-05-06 14:27 | 35.73427 | 28.68675 | 25056 ft | 361 kts | 317° |
| 2026-05-06 14:28 | 35.75333 | 28.66665 | 25053 ft | 361 kts | 317° |
| 2026-05-06 14:28 | 35.76600 | 28.65329 | 25055 ft | 361 kts | 317° |
| 2026-05-06 14:28 | 35.78510 | 28.63313 | 25056 ft | 362 kts | 317° |
| 2026-05-06 14:28 | 35.80419 | 28.61295 | 25056 ft | 362 kts | 317° |
| 2026-05-06 14:29 | 35.82329 | 28.59275 | 25055 ft | 362 kts | 317° |
| 2026-05-06 14:29 | 35.84236 | 28.57256 | 25055 ft | 362 kts | 317° |
| 2026-05-06 14:29 | 35.86145 | 28.55234 | 25054 ft | 362 kts | 317° |
| 2026-05-06 14:29 | 35.88056 | 28.53209 | 25056 ft | 362 kts | 317° |
| 2026-05-06 14:30 | 35.89963 | 28.51186 | 25054 ft | 362 kts | 318° |
| 2026-05-06 14:30 | 35.91872 | 28.49160 | 25055 ft | 362 kts | 318° |
| 2026-05-06 14:30 | 35.93780 | 28.47133 | 25020 ft | 361 kts | 318° |
| 2026-05-06 14:30 | 35.95697 | 28.45096 | 24229 ft | 367 kts | 318° |
| 2026-05-06 14:31 | 35.97639 | 28.43021 | 23031 ft | 381 kts | 317° |
| 2026-05-06 14:31 | 35.99668 | 28.40821 | 21789 ft | 394 kts | 317° |
| 2026-05-06 14:31 | 36.01721 | 28.38568 | 20668 ft | 393 kts | 317° |
| 2026-05-06 14:31 | 36.03745 | 28.36323 | 19511 ft | 389 kts | 317° |
| 2026-05-06 14:32 | 36.05745 | 28.34088 | 18422 ft | 385 kts | 317° |
| 2026-05-06 14:32 | 36.07709 | 28.31879 | 17425 ft | 378 kts | 317° |
| 2026-05-06 14:32 | 36.09634 | 28.29699 | 16348 ft | 372 kts | 317° |
| 2026-05-06 14:32 | 36.11527 | 28.27537 | 15252 ft | 370 kts | 317° |
| 2026-05-06 14:33 | 36.13403 | 28.25378 | 14184 ft | 367 kts | 317° |
| 2026-05-06 14:33 | 36.15237 | 28.23248 | 13526 ft | 354 kts | 317° |
| 2026-05-06 14:33 | 36.17007 | 28.21194 | 12704 ft | 346 kts | 320° |
| 2026-05-06 14:33 | 36.19051 | 28.19701 | 11943 ft | 338 kts | 341° |
| 2026-05-06 14:34 | 36.21333 | 28.19305 | 11255 ft | 331 kts | 2° |
| 2026-05-06 14:34 | 36.23561 | 28.20016 | 10432 ft | 332 kts | 24° |
| 2026-05-06 14:34 | 36.25418 | 28.21735 | 9489 ft | 338 kts | 46° |
| 2026-05-06 14:34 | 36.26833 | 28.24054 | 8848 ft | 333 kts | 54° |
| 2026-05-06 14:35 | 36.28082 | 28.26340 | 8491 ft | 318 kts | 55° |
| 2026-05-06 14:35 | 36.29299 | 28.28605 | 7801 ft | 315 kts | 55° |
| 2026-05-06 14:35 | 36.30513 | 28.30867 | 7072 ft | 314 kts | 55° |
| 2026-05-06 14:35 | 36.31718 | 28.33112 | 6414 ft | 311 kts | 55° |
| 2026-05-06 14:36 | 36.32913 | 28.35337 | 5777 ft | 308 kts | 55° |
| 2026-05-06 14:36 | 36.34097 | 28.37536 | 5135 ft | 305 kts | 56° |
| 2026-05-06 14:36 | 36.35419 | 28.39567 | 4421 ft | 303 kts | 38° |
| 2026-05-06 14:36 | 36.37242 | 28.40658 | 4378 ft | 284 kts | 13° |
| 2026-05-06 14:37 | 36.39178 | 28.41035 | 4099 ft | 281 kts | 6° |
| 2026-05-06 14:37 | 36.41083 | 28.41285 | 4049 ft | 267 kts | 5° |
| 2026-05-06 14:37 | 36.42886 | 28.41505 | 4022 ft | 255 kts | 5° |
| 2026-05-06 14:37 | 36.44606 | 28.41328 | 3944 ft | 244 kts | 338° |
| 2026-05-06 14:38 | 36.45933 | 28.40149 | 3932 ft | 235 kts | 306° |
| 2026-05-06 14:38 | 36.46576 | 28.38313 | 3901 ft | 234 kts | 283° |
| 2026-05-06 14:38 | 36.46909 | 28.36322 | 3802 ft | 236 kts | 281° |
| 2026-05-06 14:38 | 36.47214 | 28.34300 | 3612 ft | 241 kts | 280° |
| 2026-05-06 14:39 | 36.47380 | 28.32238 | 3339 ft | 240 kts | 261° |
| 2026-05-06 14:39 | 36.46879 | 28.30282 | 3114 ft | 237 kts | 249° |
| 2026-05-06 14:39 | 36.46324 | 28.28353 | 2856 ft | 237 kts | 250° |
| 2026-05-06 14:39 | 36.45771 | 28.26450 | 2622 ft | 229 kts | 249° |
| 2026-05-06 14:40 | 36.45238 | 28.24651 | 2421 ft | 214 kts | 249° |
| 2026-05-06 14:40 | 36.44742 | 28.22962 | 2159 ft | 202 kts | 250° |
| 2026-05-06 14:40 | 36.44272 | 28.21352 | 1898 ft | 194 kts | 250° |
| 2026-05-06 14:40 | 36.43825 | 28.19832 | 1651 ft | 180 kts | 250° |
| 2026-05-06 14:41 | 36.43416 | 28.18441 | 1416 ft | 167 kts | 250° |
| 2026-05-06 14:41 | 36.43035 | 28.17141 | 1203 ft | 154 kts | 250° |
| 2026-05-06 14:41 | 36.42681 | 28.15939 | 1005 ft | 143 kts | 250° |
| 2026-05-06 14:41 | 36.42343 | 28.14786 | 828 ft | 141 kts | 250° |
| 2026-05-06 14:42 | 36.42008 | 28.13641 | 684 ft | 140 kts | 250° |
| 2026-05-06 14:42 | 36.41672 | 28.12493 | 463 ft | 141 kts | 250° |
| 2026-05-06 14:42 | 36.41337 | 28.11375 | 245 ft | 140 kts | 251° |
| 2026-05-06 14:42 | 36.41005 | 28.10223 | 55 ft | 141 kts | 251° |
| 2026-05-06 14:43 | 36.40710 | 28.09205 | 30 ft | 113 kts | 250° |
| 2026-05-06 14:43 | 36.40516 | 28.08543 | 30 ft | 50 kts | 250° |
| 2026-05-06 14:43 | 36.40429 | 28.08246 | 26 ft | 34 kts | 249° |
| 2026-05-06 14:43 | 36.40322 | 28.08008 | 28 ft | 29 kts | 227° |
| 2026-05-06 14:44 | 36.40203 | 28.07876 | 27 ft | 18 kts | 216° |
| 2026-05-06 14:44 | 36.40143 | 28.07894 | 27 ft | 6 kts | 93° |
| 2026-05-06 14:44 | 36.40169 | 28.07984 | 27 ft | 16 kts | 69° |
| 2026-05-06 14:45 | 36.40247 | 28.08249 | 27 ft | 16 kts | 70° |
| 2026-05-06 14:45 | 36.40284 | 28.08375 | 27 ft | 15 kts | 69° |
| 2026-05-06 14:45 | 36.40320 | 28.08495 | 27 ft | 15 kts | 71° |
| 2026-05-06 14:45 | 36.40353 | 28.08611 | 27 ft | 14 kts | 69° |
| 2026-05-06 14:46 | 36.40388 | 28.08721 | 27 ft | 13 kts | 75° |
| 2026-05-06 14:46 | 36.40401 | 28.08832 | 27 ft | 13 kts | 88° |
| 2026-05-06 14:46 | 36.40399 | 28.08933 | 27 ft | 12 kts | 89° |
| 2026-05-06 14:46 | 36.40410 | 28.09029 | 27 ft | 10 kts | 75° |
| 2026-05-06 14:47 | 36.40384 | 28.09076 | 27 ft | 5 kts | 160° |
| 2026-05-06 14:47 | 36.40363 | 28.09085 | 27 ft | 2 kts | 160° |
| 2026-05-06 14:47 | 36.40354 | 28.09089 | 27 ft | 0 kts | 160° |
| 2026-05-06 14:57 | 36.40339 | 28.09026 | 27 ft | 0 kts | 160° |